createdAt,value
2023-05-18T00:00:08.662Z,528.00
2023-05-18T00:01:08.669Z,530.00
2023-05-18T00:02:08.722Z,527.00
2023-05-18T00:03:08.768Z,528.00
2023-05-18T00:04:08.737Z,528.00
2023-05-18T00:05:08.664Z,526.00
2023-05-18T00:06:08.661Z,514.00
2023-05-18T00:07:08.652Z,520.00
2023-05-18T00:08:09.902Z,518.00
2023-05-18T00:09:08.653Z,522.00
2023-05-18T00:10:08.684Z,520.00
2023-05-18T00:11:08.627Z,521.00
2023-05-18T00:12:08.618Z,523.00
2023-05-18T00:13:08.627Z,525.00
2023-05-18T00:14:08.725Z,518.00
2023-05-18T00:15:08.633Z,517.00
2023-05-18T00:16:08.654Z,510.00
2023-05-18T00:17:08.601Z,509.00
2023-05-18T00:18:08.672Z,509.00
2023-05-18T00:19:08.765Z,505.00
2023-05-18T00:20:08.665Z,518.00
2023-05-18T00:21:08.671Z,512.00
2023-05-18T00:22:08.702Z,509.00
2023-05-18T00:23:08.798Z,518.00
2023-05-18T00:24:08.819Z,517.00
2023-05-18T00:25:08.867Z,521.00
2023-05-18T00:26:08.859Z,524.00
2023-05-18T00:27:08.886Z,522.00
2023-05-18T00:28:08.938Z,523.00
2023-05-18T00:29:09.009Z,522.00
2023-05-18T00:30:09.096Z,518.00
2023-05-18T00:31:09.123Z,522.00
2023-05-18T00:32:09.204Z,524.00
2023-05-18T00:33:09.225Z,500.00
2023-05-18T00:34:09.230Z,517.00
2023-05-18T00:35:09.248Z,523.00
2023-05-18T00:36:09.258Z,517.00
2023-05-18T00:37:09.291Z,523.00
2023-05-18T00:38:09.297Z,530.00
2023-05-18T00:39:09.309Z,523.00
2023-05-18T00:40:09.300Z,522.00
2023-05-18T00:41:09.300Z,521.00
2023-05-18T00:42:09.310Z,524.00
2023-05-18T00:43:09.298Z,519.00
2023-05-18T00:44:09.298Z,520.00
2023-05-18T00:45:09.301Z,519.00
2023-05-18T00:46:09.424Z,520.00
2023-05-18T00:47:09.347Z,513.00
2023-05-18T00:48:09.430Z,507.00
2023-05-18T00:49:09.356Z,512.00
2023-05-18T00:50:09.367Z,517.00
2023-05-18T00:51:09.389Z,517.00
2023-05-18T00:52:09.401Z,518.00
2023-05-18T00:53:09.429Z,521.00
2023-05-18T00:54:09.472Z,521.00
2023-05-18T00:55:09.581Z,520.00
2023-05-18T00:56:09.566Z,520.00
2023-05-18T00:57:09.728Z,519.00
2023-05-18T00:58:09.663Z,524.00
2023-05-18T00:59:09.695Z,523.00
2023-05-18T01:00:09.717Z,519.00
2023-05-18T01:01:09.814Z,517.00
2023-05-18T01:02:09.906Z,511.00
2023-05-18T01:03:09.971Z,516.00
2023-05-18T01:04:09.801Z,517.00
2023-05-18T01:05:09.809Z,513.00
2023-05-18T01:06:09.794Z,519.00
2023-05-18T01:07:09.806Z,526.00
2023-05-18T01:08:09.822Z,527.00
2023-05-18T01:09:09.873Z,529.00
2023-05-18T01:10:09.877Z,531.00
2023-05-18T01:11:09.997Z,534.00
2023-05-18T01:12:09.930Z,538.00
2023-05-18T01:13:09.968Z,537.00
2023-05-18T01:14:10.007Z,533.00
2023-05-18T01:15:10.035Z,531.00
2023-05-18T01:16:10.055Z,530.00
2023-05-18T01:17:10.179Z,531.00
2023-05-18T01:18:10.341Z,533.00
2023-05-18T01:19:10.183Z,534.00
2023-05-18T01:20:10.190Z,534.00
2023-05-18T01:21:10.215Z,532.00
2023-05-18T01:22:10.215Z,531.00
2023-05-18T01:23:10.344Z,536.00
2023-05-18T01:24:10.296Z,537.00
2023-05-18T01:25:10.376Z,535.00
2023-05-18T01:26:10.432Z,531.00
2023-05-18T01:27:10.484Z,532.00
2023-05-18T01:28:10.521Z,532.00
2023-05-18T01:29:10.528Z,531.00
2023-05-18T01:30:10.577Z,535.00
2023-05-18T01:31:10.620Z,536.00
2023-05-18T01:32:10.644Z,538.00
2023-05-18T01:33:10.750Z,539.00
2023-05-18T01:34:10.813Z,543.00
2023-05-18T01:35:10.807Z,541.00
2023-05-18T01:36:10.870Z,542.00
2023-05-18T01:37:10.919Z,540.00
2023-05-18T01:38:10.967Z,539.00
2023-05-18T01:39:11.007Z,539.00
2023-05-18T01:40:11.103Z,540.00
2023-05-18T01:41:11.099Z,541.00
2023-05-18T01:42:11.132Z,541.00
2023-05-18T01:43:11.148Z,542.00
2023-05-18T01:44:12.045Z,540.00
2023-05-18T01:45:11.247Z,538.00
2023-05-18T01:46:11.346Z,537.00
2023-05-18T01:47:11.354Z,535.00
2023-05-18T01:48:11.479Z,533.00
2023-05-18T01:49:11.441Z,531.00
2023-05-18T01:50:11.527Z,528.00
2023-05-18T01:51:11.549Z,524.00
2023-05-18T01:52:11.624Z,527.00
2023-05-18T01:53:11.715Z,527.00
2023-05-18T01:54:11.747Z,526.00
2023-05-18T01:55:11.805Z,523.00
2023-05-18T01:56:11.869Z,525.00
2023-05-18T01:57:11.977Z,524.00
2023-05-18T01:58:12.009Z,528.00
2023-05-18T01:59:12.070Z,530.00
2023-05-18T02:00:12.100Z,531.00
2023-05-18T02:01:12.174Z,524.00
2023-05-18T02:02:12.261Z,526.00
2023-05-18T02:03:12.415Z,527.00
2023-05-18T02:04:12.511Z,524.00
2023-05-18T02:05:12.452Z,525.00
2023-05-18T02:06:12.492Z,524.00
2023-05-18T02:07:12.562Z,523.00
2023-05-18T02:08:12.604Z,524.00
2023-05-18T02:09:12.655Z,525.00
2023-05-18T02:10:12.698Z,522.00
2023-05-18T02:11:12.734Z,525.00
2023-05-18T02:12:12.781Z,525.00
2023-05-18T02:13:12.808Z,528.00
2023-05-18T02:14:12.853Z,524.00
2023-05-18T02:15:12.895Z,526.00
2023-05-18T02:16:12.952Z,530.00
2023-05-18T02:17:13.013Z,532.00
2023-05-18T02:18:13.071Z,531.00
2023-05-18T02:19:13.156Z,532.00
2023-05-18T02:20:13.149Z,530.00
2023-05-18T02:21:13.196Z,530.00
2023-05-18T02:22:13.277Z,531.00
2023-05-18T02:23:13.288Z,529.00
2023-05-18T02:24:13.328Z,529.00
2023-05-18T02:25:13.402Z,531.00
2023-05-18T02:26:13.461Z,528.00
2023-05-18T02:27:13.539Z,525.00
2023-05-18T02:28:13.563Z,525.00
2023-05-18T02:29:13.584Z,525.00
2023-05-18T02:30:15.761Z,524.00
2023-05-18T02:31:13.628Z,520.00
2023-05-18T02:32:13.658Z,524.00
2023-05-18T02:33:13.651Z,531.00
2023-05-18T02:34:13.615Z,533.00
2023-05-18T02:35:13.566Z,531.00
2023-05-18T02:36:13.573Z,530.00
2023-05-18T02:37:13.533Z,531.00
2023-05-18T02:38:13.556Z,529.00
2023-05-18T02:39:13.560Z,534.00
2023-05-18T02:40:13.549Z,537.00
2023-05-18T02:41:13.550Z,537.00
2023-05-18T02:42:13.559Z,534.00
2023-05-18T02:43:13.609Z,495.00
2023-05-18T02:44:13.557Z,527.00
2023-05-18T02:45:13.558Z,537.00
2023-05-18T02:46:13.565Z,533.00
2023-05-18T02:47:13.537Z,534.00
2023-05-18T02:48:13.531Z,530.00
2023-05-18T02:49:13.514Z,529.00
2023-05-18T02:50:13.488Z,525.00
2023-05-18T02:51:13.490Z,530.00
2023-05-18T02:52:13.469Z,527.00
2023-05-18T02:53:13.471Z,527.00
2023-05-18T02:54:13.577Z,530.00
2023-05-18T02:55:13.453Z,527.00
2023-05-18T02:56:13.455Z,530.00
2023-05-18T02:57:13.448Z,531.00
2023-05-18T02:58:13.453Z,531.00
2023-05-18T02:59:13.443Z,532.00
2023-05-18T03:00:13.445Z,532.00
2023-05-18T03:01:13.500Z,532.00
2023-05-18T03:02:13.498Z,535.00
2023-05-18T03:03:13.512Z,535.00
2023-05-18T03:04:13.428Z,534.00
2023-05-18T03:05:13.425Z,531.00
2023-05-18T03:06:13.416Z,530.00
2023-05-18T03:07:13.416Z,532.00
2023-05-18T03:08:13.406Z,535.00
2023-05-18T03:09:13.408Z,532.00
2023-05-18T03:10:13.435Z,534.00
2023-05-18T03:11:13.456Z,537.00
2023-05-18T03:12:13.516Z,536.00
2023-05-18T03:13:13.573Z,537.00
2023-05-18T03:14:13.625Z,535.00
2023-05-18T03:15:13.682Z,534.00
2023-05-18T03:16:13.771Z,529.00
2023-05-18T03:17:13.784Z,535.00
2023-05-18T03:18:13.850Z,536.00
2023-05-18T03:19:13.919Z,539.00
2023-05-18T03:20:13.907Z,525.00
2023-05-18T03:21:13.983Z,526.00
2023-05-18T03:22:14.012Z,537.00
2023-05-18T03:23:14.075Z,517.00
2023-05-18T03:24:14.132Z,523.00
2023-05-18T03:25:14.200Z,529.00
2023-05-18T03:26:14.278Z,530.00
2023-05-18T03:27:14.271Z,531.00
2023-05-18T03:28:14.357Z,534.00
2023-05-18T03:29:14.420Z,535.00
2023-05-18T03:30:14.498Z,533.00
2023-05-18T03:31:14.636Z,533.00
2023-05-18T03:32:14.615Z,532.00
2023-05-18T03:33:14.701Z,534.00
2023-05-18T03:34:14.651Z,534.00
2023-05-18T03:35:14.719Z,537.00
2023-05-18T03:36:14.792Z,538.00
2023-05-18T03:37:14.913Z,540.00
2023-05-18T03:38:14.980Z,538.00
2023-05-18T03:39:14.976Z,533.00
2023-05-18T03:40:15.038Z,531.00
2023-05-18T03:41:15.066Z,530.00
2023-05-18T03:42:15.152Z,530.00
2023-05-18T03:43:15.190Z,529.00
2023-05-18T03:44:15.266Z,535.00
2023-05-18T03:45:15.257Z,538.00
2023-05-18T03:46:15.323Z,542.00
2023-05-18T03:47:15.304Z,547.00
2023-05-18T03:48:15.335Z,552.00
2023-05-18T03:49:15.391Z,547.00
2023-05-18T03:50:15.424Z,544.00
2023-05-18T03:51:15.460Z,545.00
2023-05-18T03:52:15.520Z,542.00
2023-05-18T03:53:15.550Z,542.00
2023-05-18T03:54:15.597Z,547.00
2023-05-18T03:55:15.648Z,545.00
2023-05-18T03:56:15.755Z,543.00
2023-05-18T03:57:15.777Z,545.00
2023-05-18T03:58:15.909Z,544.00
2023-05-18T03:59:15.881Z,543.00
2023-05-18T04:00:15.935Z,539.00
2023-05-18T04:01:15.986Z,541.00
2023-05-18T04:02:16.116Z,540.00
2023-05-18T04:03:16.167Z,541.00
2023-05-18T04:04:16.255Z,541.00
2023-05-18T04:05:16.216Z,536.00
2023-05-18T04:06:16.263Z,538.00
2023-05-18T04:07:16.264Z,536.00
2023-05-18T04:08:16.352Z,533.00
2023-05-18T04:09:16.384Z,542.00
2023-05-18T04:10:16.433Z,527.00
2023-05-18T04:11:16.483Z,542.00
2023-05-18T04:12:16.546Z,544.00
2023-05-18T04:13:16.591Z,548.00
2023-05-18T04:14:16.704Z,548.00
2023-05-18T04:15:16.731Z,549.00
2023-05-18T04:16:16.816Z,543.00
2023-05-18T04:17:16.793Z,542.00
2023-05-18T04:18:16.833Z,522.00
2023-05-18T04:19:16.947Z,533.00
2023-05-18T04:20:16.955Z,539.00
2023-05-18T04:21:17.008Z,537.00
2023-05-18T04:22:17.101Z,533.00
2023-05-18T04:23:17.168Z,540.00
2023-05-18T04:24:17.250Z,538.00
2023-05-18T04:25:17.327Z,539.00
2023-05-18T04:26:17.375Z,540.00
2023-05-18T04:27:18.034Z,536.00
2023-05-18T04:28:17.470Z,541.00
2023-05-18T04:29:17.519Z,540.00
2023-05-18T04:30:17.558Z,543.00
2023-05-18T04:31:17.560Z,544.00
2023-05-18T04:32:17.667Z,543.00
2023-05-18T04:33:17.598Z,541.00
2023-05-18T04:34:17.623Z,534.00
2023-05-18T04:35:17.679Z,534.00
2023-05-18T04:36:19.546Z,534.00
2023-05-18T04:37:17.702Z,535.00
2023-05-18T04:38:17.721Z,540.00
2023-05-18T04:39:17.734Z,539.00
2023-05-18T04:40:17.813Z,539.00
2023-05-18T04:41:17.787Z,537.00
2023-05-18T04:42:17.763Z,534.00
2023-05-18T04:43:17.767Z,533.00
2023-05-18T04:44:17.780Z,537.00
2023-05-18T04:45:17.931Z,540.00
2023-05-18T04:46:17.852Z,538.00
2023-05-18T04:47:17.797Z,535.00
2023-05-18T04:48:17.826Z,536.00
2023-05-18T04:49:17.798Z,543.00
2023-05-18T04:50:17.793Z,542.00
2023-05-18T04:51:17.795Z,540.00
2023-05-18T04:52:17.786Z,542.00
2023-05-18T04:53:17.802Z,545.00
2023-05-18T04:54:17.797Z,529.00
2023-05-18T04:55:17.813Z,534.00
2023-05-18T04:56:17.820Z,536.00
2023-05-18T04:57:17.815Z,541.00
2023-05-18T04:58:17.824Z,537.00
2023-05-18T04:59:17.838Z,540.00
2023-05-18T05:00:17.853Z,539.00
2023-05-18T05:01:17.856Z,539.00
2023-05-18T05:02:17.918Z,542.00
2023-05-18T05:03:18.090Z,543.00
2023-05-18T05:04:17.882Z,544.00
2023-05-18T05:05:17.894Z,524.00
2023-05-18T05:06:17.899Z,521.00
2023-05-18T05:07:17.923Z,541.00
2023-05-18T05:08:17.942Z,536.00
2023-05-18T05:09:17.969Z,541.00
2023-05-18T05:10:17.960Z,540.00
2023-05-18T05:11:17.973Z,544.00
2023-05-18T05:12:17.993Z,543.00
2023-05-18T05:13:18.048Z,543.00
2023-05-18T05:14:18.126Z,540.00
2023-05-18T05:15:18.223Z,539.00
2023-05-18T05:16:18.281Z,537.00
2023-05-18T05:17:18.238Z,539.00
2023-05-18T05:18:18.318Z,538.00
2023-05-18T05:19:18.432Z,536.00
2023-05-18T05:20:18.499Z,504.00
2023-05-18T05:21:18.563Z,532.00
2023-05-18T05:22:18.608Z,529.00
2023-05-18T05:23:18.715Z,536.00
2023-05-18T05:24:18.725Z,518.00
2023-05-18T05:25:18.773Z,541.00
2023-05-18T05:26:18.798Z,537.00
2023-05-18T05:27:18.900Z,537.00
2023-05-18T05:28:18.954Z,535.00
2023-05-18T05:29:19.021Z,536.00
2023-05-18T05:30:19.154Z,538.00
2023-05-18T05:31:19.246Z,539.00
2023-05-18T05:32:19.289Z,534.00
2023-05-18T05:33:19.319Z,539.00
2023-05-18T05:34:19.370Z,541.00
2023-05-18T05:35:19.398Z,536.00
2023-05-18T05:36:19.382Z,535.00
2023-05-18T05:37:19.430Z,537.00
2023-05-18T05:38:19.445Z,535.00
2023-05-18T05:39:19.512Z,538.00
2023-05-18T05:40:19.579Z,531.00
2023-05-18T05:41:19.674Z,533.00
2023-05-18T05:42:19.720Z,523.00
2023-05-18T05:43:19.768Z,538.00
2023-05-18T05:44:19.815Z,539.00
2023-05-18T05:45:19.902Z,542.00
2023-05-18T05:46:19.982Z,527.00
2023-05-18T05:47:20.029Z,527.00
2023-05-18T05:48:20.119Z,530.00
2023-05-18T05:49:20.114Z,534.00
2023-05-18T05:50:20.207Z,532.00
2023-05-18T05:51:20.248Z,518.00
2023-05-18T05:52:20.246Z,538.00
2023-05-18T05:53:20.308Z,529.00
2023-05-18T05:54:20.368Z,533.00
2023-05-18T05:55:20.435Z,538.00
2023-05-18T05:56:20.489Z,530.00
2023-05-18T05:57:20.549Z,511.00
2023-05-18T05:58:20.584Z,523.00
2023-05-18T05:59:20.598Z,523.00
2023-05-18T06:00:20.615Z,529.00
2023-05-18T06:01:20.644Z,535.00
2023-05-18T06:02:20.725Z,524.00
2023-05-18T06:03:20.845Z,535.00
2023-05-18T06:04:20.866Z,519.00
2023-05-18T06:05:20.846Z,520.00
2023-05-18T06:06:20.978Z,522.00
2023-05-18T06:07:20.962Z,528.00
2023-05-18T06:08:21.007Z,531.00
2023-05-18T06:09:21.056Z,533.00
2023-05-18T06:10:21.106Z,527.00
2023-05-18T06:11:21.153Z,530.00
2023-05-18T06:12:21.220Z,529.00
2023-05-18T06:13:21.300Z,530.00
2023-05-18T06:14:21.406Z,524.00
2023-05-18T06:15:21.371Z,523.00
2023-05-18T06:16:21.421Z,522.00
2023-05-18T06:17:21.402Z,525.00
2023-05-18T06:18:21.426Z,521.00
2023-05-18T06:19:21.537Z,525.00
2023-05-18T06:20:21.468Z,526.00
2023-05-18T06:21:21.476Z,528.00
2023-05-18T06:22:21.530Z,522.00
2023-05-18T06:23:21.546Z,522.00
2023-05-18T06:24:21.526Z,524.00
2023-05-18T06:25:21.534Z,524.00
2023-05-18T06:26:21.541Z,519.00
2023-05-18T06:27:21.539Z,522.00
2023-05-18T06:28:21.597Z,513.00
2023-05-18T06:29:21.631Z,520.00
2023-05-18T06:30:21.604Z,519.00
2023-05-18T06:31:21.666Z,523.00
2023-05-18T06:32:21.707Z,520.00
2023-05-18T06:33:21.683Z,525.00
2023-05-18T06:34:21.668Z,528.00
2023-05-18T06:35:21.698Z,524.00
2023-05-18T06:36:21.749Z,521.00
2023-05-18T06:37:21.768Z,524.00
2023-05-18T06:38:21.874Z,526.00
2023-05-18T06:39:21.801Z,529.00
2023-05-18T06:40:21.825Z,527.00
2023-05-18T06:41:21.807Z,525.00
2023-05-18T06:42:21.821Z,523.00
2023-05-18T06:43:21.815Z,522.00
2023-05-18T06:44:21.815Z,521.00
2023-05-18T06:45:21.812Z,519.00
2023-05-18T06:46:21.868Z,520.00
2023-05-18T06:47:21.864Z,526.00
2023-05-18T06:48:21.866Z,524.00
2023-05-18T06:49:21.890Z,525.00
2023-05-18T06:50:21.891Z,523.00
2023-05-18T06:51:21.932Z,522.00
2023-05-18T06:52:21.917Z,523.00
2023-05-18T06:53:21.940Z,522.00
2023-05-18T06:54:22.009Z,515.00
2023-05-18T06:55:22.029Z,523.00
2023-05-18T06:56:22.072Z,521.00
2023-05-18T06:57:22.099Z,516.00
2023-05-18T06:58:22.153Z,521.00
2023-05-18T06:59:22.174Z,518.00
2023-05-18T07:00:22.201Z,518.00
2023-05-18T07:01:22.237Z,515.00
2023-05-18T07:02:22.255Z,518.00
2023-05-18T07:03:22.229Z,511.00
2023-05-18T07:04:22.227Z,509.00
2023-05-18T07:05:22.237Z,514.00
2023-05-18T07:06:22.228Z,507.00
2023-05-18T07:07:22.228Z,510.00
2023-05-18T07:08:22.236Z,515.00
2023-05-18T07:09:22.236Z,526.00
2023-05-18T07:10:22.291Z,524.00
2023-05-18T07:11:22.279Z,519.00
2023-05-18T07:12:22.278Z,522.00
2023-05-18T07:13:22.301Z,527.00
2023-05-18T07:14:22.338Z,505.00
2023-05-18T07:15:22.317Z,510.00
2023-05-18T07:16:22.336Z,507.00
2023-05-18T07:17:22.287Z,521.00
2023-05-18T07:18:22.335Z,527.00
2023-05-18T07:19:22.485Z,513.00
2023-05-18T07:20:24.272Z,522.00
2023-05-18T07:21:22.365Z,524.00
2023-05-18T07:22:22.337Z,520.00
2023-05-18T07:23:22.300Z,519.00
2023-05-18T07:24:22.276Z,519.00
2023-05-18T07:25:22.263Z,519.00
2023-05-18T07:26:22.240Z,522.00
2023-05-18T07:27:22.220Z,523.00
2023-05-18T07:28:22.148Z,515.00
2023-05-18T07:29:22.099Z,542.00
2023-05-18T07:30:22.062Z,509.00
2023-05-18T07:31:22.077Z,516.00
2023-05-18T07:32:21.970Z,517.00
2023-05-18T07:33:21.923Z,518.00
2023-05-18T07:34:21.878Z,518.00
2023-05-18T07:35:21.848Z,518.00
2023-05-18T07:36:21.786Z,509.00
2023-05-18T07:37:21.777Z,524.00
2023-05-18T07:38:21.719Z,516.00
2023-05-18T07:39:21.684Z,521.00
2023-05-18T07:40:21.658Z,519.00
2023-05-18T07:41:21.655Z,501.00
2023-05-18T07:42:21.691Z,529.00
2023-05-18T07:43:21.661Z,526.00
2023-05-18T07:44:21.692Z,517.00
2023-05-18T07:45:21.702Z,525.00
2023-05-18T07:46:21.782Z,504.00
2023-05-18T07:47:21.704Z,513.00
2023-05-18T07:48:21.677Z,509.00
2023-05-18T07:49:21.669Z,511.00
2023-05-18T07:50:21.687Z,511.00
2023-05-18T07:51:21.662Z,513.00
2023-05-18T07:52:21.680Z,512.00
2023-05-18T07:53:21.654Z,519.00
2023-05-18T07:54:21.681Z,510.00
2023-05-18T07:55:21.709Z,510.00
2023-05-18T07:56:21.723Z,508.00
2023-05-18T07:57:21.685Z,496.00
2023-05-18T07:58:21.710Z,501.00
2023-05-18T07:59:21.666Z,495.00
2023-05-18T08:00:21.629Z,502.00
2023-05-18T08:01:21.646Z,530.00
2023-05-18T08:02:21.715Z,505.00
2023-05-18T08:03:21.824Z,487.00
2023-05-18T08:04:21.747Z,500.00
2023-05-18T08:05:21.694Z,504.00
2023-05-18T08:06:21.721Z,516.00
2023-05-18T08:07:21.716Z,508.00
2023-05-18T08:08:21.744Z,512.00
2023-05-18T08:09:21.779Z,512.00
2023-05-18T08:10:21.757Z,514.00
2023-05-18T08:11:21.755Z,516.00
2023-05-18T08:12:21.773Z,514.00
2023-05-18T08:13:21.785Z,504.00
2023-05-18T08:14:21.860Z,513.00
2023-05-18T08:15:21.846Z,521.00
2023-05-18T08:16:22.250Z,514.00
2023-05-18T08:17:21.821Z,512.00
2023-05-18T08:18:21.813Z,505.00
2023-05-18T08:19:21.948Z,500.00
2023-05-18T08:20:21.865Z,497.00
2023-05-18T08:21:21.844Z,502.00
2023-05-18T08:22:21.822Z,498.00
2023-05-18T08:23:21.790Z,508.00
2023-05-18T08:24:21.819Z,505.00
2023-05-18T08:25:21.850Z,502.00
2023-05-18T08:26:21.833Z,502.00
2023-05-18T08:27:21.858Z,510.00
2023-05-18T08:28:21.857Z,524.00
2023-05-18T08:29:21.882Z,510.00
2023-05-18T08:30:21.877Z,505.00
2023-05-18T08:31:21.876Z,502.00
2023-05-18T08:32:21.907Z,509.00
2023-05-18T08:33:21.953Z,506.00
2023-05-18T08:34:21.916Z,516.00
2023-05-18T08:35:21.914Z,501.00
2023-05-18T08:36:21.902Z,502.00
2023-05-18T08:37:21.936Z,500.00
2023-05-18T08:38:21.932Z,503.00
2023-05-18T08:39:21.920Z,507.00
2023-05-18T08:40:21.934Z,507.00
2023-05-18T08:41:21.883Z,495.00
2023-05-18T08:42:21.854Z,497.00
2023-05-18T08:43:21.849Z,503.00
2023-05-18T08:44:21.830Z,508.00
2023-05-18T08:45:21.826Z,511.00
2023-05-18T08:46:21.863Z,511.00
2023-05-18T08:47:21.850Z,512.00
2023-05-18T08:48:21.886Z,503.00
2023-05-18T08:49:21.755Z,503.00
2023-05-18T08:50:24.296Z,502.00
2023-05-18T08:51:21.712Z,494.00
2023-05-18T08:52:21.664Z,498.00
2023-05-18T08:53:21.616Z,505.00
2023-05-18T08:54:21.574Z,499.00
2023-05-18T08:55:21.556Z,485.00
2023-05-18T08:56:21.465Z,494.00
2023-05-18T08:57:21.415Z,505.00
2023-05-18T08:58:21.404Z,506.00
2023-05-18T08:59:21.343Z,510.00
2023-05-18T09:00:22.918Z,507.00
2023-05-18T09:01:21.311Z,507.00
2023-05-18T09:02:21.234Z,509.00
2023-05-18T09:03:21.172Z,511.00
2023-05-18T09:04:21.090Z,505.00
2023-05-18T09:05:21.155Z,506.00
2023-05-18T09:07:19.906Z,511.00
2023-05-18T09:08:20.878Z,515.00
2023-05-18T09:09:20.841Z,513.00
2023-05-18T09:10:20.790Z,515.00
2023-05-18T09:11:20.751Z,513.00
2023-05-18T09:12:22.225Z,523.00
2023-05-18T09:13:20.681Z,519.00
2023-05-18T09:14:20.652Z,511.00
2023-05-18T09:15:20.606Z,507.00
2023-05-18T09:16:20.637Z,509.00
2023-05-18T09:17:20.524Z,511.00
2023-05-18T09:18:22.196Z,512.00
2023-05-18T09:19:20.504Z,511.00
2023-05-18T09:20:20.422Z,508.00
2023-05-18T09:21:20.382Z,508.00
2023-05-18T09:22:20.356Z,496.00
2023-05-18T09:23:20.353Z,497.00
2023-05-18T09:24:22.435Z,502.00
2023-05-18T09:25:20.268Z,509.00
2023-05-18T09:26:21.145Z,506.00
2023-05-18T09:27:20.184Z,504.00
2023-05-18T09:28:20.139Z,505.00
2023-05-18T09:29:20.105Z,506.00
2023-05-18T09:30:20.063Z,506.00
2023-05-18T09:31:20.045Z,507.00
2023-05-18T09:32:19.968Z,505.00
2023-05-18T09:33:20.004Z,502.00
2023-05-18T09:34:19.903Z,502.00
2023-05-18T09:35:19.845Z,505.00
2023-05-18T09:36:19.797Z,501.00
2023-05-18T09:37:19.760Z,506.00
2023-05-18T09:38:19.740Z,505.00
2023-05-18T09:39:19.776Z,510.00
2023-05-18T09:40:19.794Z,504.00
2023-05-18T09:41:19.790Z,456.00
2023-05-18T09:42:19.892Z,497.00
2023-05-18T09:43:19.735Z,502.00
2023-05-18T09:44:19.684Z,493.00
2023-05-18T09:45:19.675Z,522.00
2023-05-18T09:46:19.723Z,514.00
2023-05-18T09:47:19.707Z,502.00
2023-05-18T09:48:19.696Z,506.00
2023-05-18T09:49:19.675Z,511.00
2023-05-18T09:50:19.759Z,514.00
2023-05-18T09:51:19.666Z,503.00
2023-05-18T09:52:19.656Z,509.00
2023-05-18T09:53:19.671Z,510.00
2023-05-18T09:54:19.658Z,505.00
2023-05-18T09:55:19.699Z,507.00
2023-05-18T09:56:19.682Z,507.00
2023-05-18T09:57:19.706Z,495.00
2023-05-18T09:58:19.691Z,488.00
2023-05-18T09:59:19.683Z,504.00
2023-05-18T10:00:19.977Z,489.00
2023-05-18T10:01:19.777Z,501.00
2023-05-18T10:02:19.654Z,501.00
2023-05-18T10:03:19.666Z,502.00
2023-05-18T10:04:19.699Z,497.00
2023-05-18T10:05:19.622Z,500.00
2023-05-18T10:06:19.634Z,500.00
2023-05-18T10:07:20.099Z,496.00
2023-05-18T10:08:19.567Z,500.00
2023-05-18T10:09:19.532Z,501.00
2023-05-18T10:10:19.560Z,490.00
2023-05-18T10:11:19.468Z,484.00
2023-05-18T10:12:19.423Z,496.00
2023-05-18T10:13:19.394Z,487.00
2023-05-18T10:14:19.417Z,506.00
2023-05-18T10:15:19.366Z,461.00
2023-05-18T10:16:19.355Z,493.00
2023-05-18T10:17:19.322Z,500.00
2023-05-18T10:18:19.321Z,509.00
2023-05-18T10:19:19.242Z,497.00
2023-05-18T10:20:19.281Z,504.00
2023-05-18T10:21:19.173Z,510.00
2023-05-18T10:22:19.197Z,502.00
2023-05-18T10:23:19.214Z,505.00
2023-05-18T10:24:19.210Z,505.00
2023-05-18T10:25:19.205Z,506.00
2023-05-18T10:26:19.194Z,515.00
2023-05-18T10:27:19.204Z,510.00
2023-05-18T10:28:19.226Z,499.00
2023-05-18T10:29:19.263Z,501.00
2023-05-18T10:30:19.348Z,501.00
2023-05-18T10:31:19.268Z,494.00
2023-05-18T10:32:19.257Z,505.00
2023-05-18T10:33:28.567Z,503.00
2023-05-18T10:34:19.230Z,504.00
2023-05-18T10:35:19.204Z,512.00
2023-05-18T10:36:19.164Z,504.00
2023-05-18T10:37:19.112Z,503.00
2023-05-18T10:38:19.139Z,500.00
2023-05-18T10:39:19.039Z,507.00
2023-05-18T10:40:19.065Z,499.00
2023-05-18T10:41:18.932Z,470.00
2023-05-18T10:42:18.887Z,505.00
2023-05-18T10:43:20.401Z,500.00
2023-05-18T10:44:18.771Z,507.00
2023-05-18T10:45:18.742Z,510.00
2023-05-18T10:46:18.769Z,502.00
2023-05-18T10:47:18.702Z,512.00
2023-05-18T10:48:18.624Z,509.00
2023-05-18T10:49:18.547Z,510.00
2023-05-18T10:50:18.528Z,503.00
2023-05-18T10:51:19.263Z,505.00
2023-05-18T10:52:18.438Z,503.00
2023-05-18T10:53:18.396Z,509.00
2023-05-18T10:54:18.425Z,482.00
2023-05-18T10:55:18.328Z,518.00
2023-05-18T10:56:18.328Z,502.00
2023-05-18T10:57:18.259Z,514.00
2023-05-18T10:58:18.219Z,499.00
2023-05-18T10:59:18.193Z,504.00
2023-05-18T11:00:18.133Z,507.00
2023-05-18T11:01:18.200Z,508.00
2023-05-18T11:02:18.061Z,493.00
2023-05-18T11:03:18.145Z,499.00
2023-05-18T11:04:18.122Z,499.00
2023-05-18T11:05:18.182Z,499.00
2023-05-18T11:06:18.062Z,504.00
2023-05-18T11:07:18.054Z,512.00
2023-05-18T11:08:18.036Z,500.00
2023-05-18T11:09:18.012Z,501.00
2023-05-18T11:10:18.057Z,511.00
2023-05-18T11:11:19.239Z,506.00
2023-05-18T11:12:18.072Z,498.00
2023-05-18T11:13:18.095Z,506.00
2023-05-18T11:14:18.107Z,502.00
2023-05-18T11:15:18.198Z,498.00
2023-05-18T11:16:18.151Z,504.00
2023-05-18T11:17:18.169Z,505.00
2023-05-18T11:18:18.210Z,494.00
2023-05-18T11:19:18.161Z,499.00
2023-05-18T11:20:18.166Z,505.00
2023-05-18T11:21:18.093Z,501.00
2023-05-18T11:22:18.074Z,504.00
2023-05-18T11:23:18.048Z,499.00
2023-05-18T11:24:18.064Z,502.00
2023-05-18T11:25:18.078Z,499.00
2023-05-18T11:26:18.069Z,486.00
2023-05-18T11:27:18.031Z,498.00
2023-05-18T11:28:18.057Z,505.00
2023-05-18T11:29:18.086Z,504.00
2023-05-18T11:30:18.136Z,512.00
2023-05-18T11:31:18.119Z,500.00
2023-05-18T11:32:22.705Z,506.00
2023-05-18T11:33:18.194Z,505.00
2023-05-18T11:34:18.019Z,508.00
2023-05-18T11:35:17.985Z,498.00
2023-05-18T11:36:17.934Z,504.00
2023-05-18T11:37:17.884Z,503.00
2023-05-18T11:38:17.850Z,510.00
2023-05-18T11:39:17.820Z,492.00
2023-05-18T11:40:17.783Z,510.00
2023-05-18T11:41:17.733Z,493.00
2023-05-18T11:42:17.722Z,508.00
2023-05-18T11:43:17.659Z,507.00
2023-05-18T11:44:17.663Z,511.00
2023-05-18T11:45:17.613Z,509.00
2023-05-18T11:46:17.549Z,483.00
2023-05-18T11:47:17.519Z,512.00
2023-05-18T11:48:17.638Z,516.00
2023-05-18T11:49:17.498Z,509.00
2023-05-18T11:50:17.498Z,508.00
2023-05-18T11:51:17.383Z,506.00
2023-05-18T11:52:17.343Z,511.00
2023-05-18T11:53:17.346Z,518.00
2023-05-18T11:54:17.261Z,497.00
2023-05-18T11:55:17.226Z,502.00
2023-05-18T11:56:17.187Z,500.00
2023-05-18T11:57:17.145Z,505.00
2023-05-18T11:58:17.167Z,508.00
2023-05-18T11:59:17.039Z,508.00
2023-05-18T12:00:16.995Z,500.00
2023-05-18T12:01:16.929Z,523.00
2023-05-18T12:02:16.906Z,505.00
2023-05-18T12:03:16.949Z,511.00
2023-05-18T12:04:16.903Z,494.00
2023-05-18T12:05:16.783Z,497.00
2023-05-18T12:06:16.809Z,488.00
2023-05-18T12:07:16.732Z,498.00
2023-05-18T12:08:16.753Z,500.00
2023-05-18T12:09:16.783Z,498.00
2023-05-18T12:10:16.729Z,497.00
2023-05-18T12:11:16.730Z,501.00
2023-05-18T12:12:16.738Z,492.00
2023-05-18T12:13:16.726Z,489.00
2023-05-18T12:14:16.722Z,494.00
2023-05-18T12:15:17.340Z,499.00
2023-05-18T12:16:16.691Z,496.00
2023-05-18T12:17:16.696Z,500.00
2023-05-18T12:18:16.738Z,505.00
2023-05-18T12:19:16.709Z,496.00
2023-05-18T12:20:16.737Z,493.00
2023-05-18T12:21:16.699Z,500.00
2023-05-18T12:22:16.737Z,498.00
2023-05-18T12:23:16.666Z,504.00
2023-05-18T12:24:16.659Z,505.00
2023-05-18T12:25:16.624Z,508.00
2023-05-18T12:26:16.586Z,506.00
2023-05-18T12:27:16.544Z,506.00
2023-05-18T12:28:16.533Z,506.00
2023-05-18T12:29:16.481Z,511.00